sensor_id;sensor_type;location;lat;lon;timestamp;P1;durP1;ratioP1;P2;durP2;ratioP2
70733;SDS011;58320;48.804;9.252;2022-11-13T00:00:55;37.08;;;19.90;;
70733;SDS011;58320;48.804;9.252;2022-11-13T00:03:21;33.13;;;18.75;;
70733;SDS011;58320;48.804;9.252;2022-11-13T00:05:47;31.17;;;18.83;;
70733;SDS011;58320;48.804;9.252;2022-11-13T00:08:13;26.48;;;15.63;;
70733;SDS011;58320;48.804;9.252;2022-11-13T00:10:39;29.98;;;16.60;;
70733;SDS011;58320;48.804;9.252;2022-11-13T00:13:05;29.43;;;18.17;;
70733;SDS011;58320;48.804;9.252;2022-11-13T00:15:30;27.80;;;17.67;;
70733;SDS011;58320;48.804;9.252;2022-11-13T00:17:59;26.40;;;16.77;;
70733;SDS011;58320;48.804;9.252;2022-11-13T00:20:26;29.88;;;17.83;;
70733;SDS011;58320;48.804;9.252;2022-11-13T00:22:52;27.45;;;18.70;;
70733;SDS011;58320;48.804;9.252;2022-11-13T00:25:18;30.38;;;17.85;;
70733;SDS011;58320;48.804;9.252;2022-11-13T00:27:44;28.63;;;18.07;;
70733;SDS011;58320;48.804;9.252;2022-11-13T00:30:10;28.70;;;18.38;;
70733;SDS011;58320;48.804;9.252;2022-11-13T00:32:36;30.45;;;18.75;;
70733;SDS011;58320;48.804;9.252;2022-11-13T00:35:04;24.02;;;16.30;;
70733;SDS011;58320;48.804;9.252;2022-11-13T00:37:30;24.60;;;16.27;;
70733;SDS011;58320;48.804;9.252;2022-11-13T00:39:56;29.15;;;18.02;;
70733;SDS011;58320;48.804;9.252;2022-11-13T00:42:22;28.70;;;17.13;;
70733;SDS011;58320;48.804;9.252;2022-11-13T00:44:48;27.73;;;17.47;;
70733;SDS011;58320;48.804;9.252;2022-11-13T00:47:13;25.65;;;16.25;;
70733;SDS011;58320;48.804;9.252;2022-11-13T00:49:39;24.07;;;14.13;;
70733;SDS011;58320;48.804;9.252;2022-11-13T00:52:05;25.80;;;14.30;;
70733;SDS011;58320;48.804;9.252;2022-11-13T00:54:31;24.95;;;15.48;;
70733;SDS011;58320;48.804;9.252;2022-11-13T00:56:57;30.57;;;17.37;;
70733;SDS011;58320;48.804;9.252;2022-11-13T00:59:23;29.48;;;17.75;;
70733;SDS011;58320;48.804;9.252;2022-11-13T01:01:48;30.02;;;16.15;;
70733;SDS011;58320;48.804;9.252;2022-11-13T01:04:14;36.07;;;18.53;;
70733;SDS011;58320;48.804;9.252;2022-11-13T01:06:40;29.27;;;15.45;;
70733;SDS011;58320;48.804;9.252;2022-11-13T01:09:06;44.87;;;13.13;;
70733;SDS011;58320;48.804;9.252;2022-11-13T01:11:32;34.75;;;14.43;;
70733;SDS011;58320;48.804;9.252;2022-11-13T01:13:57;28.08;;;14.02;;
70733;SDS011;58320;48.804;9.252;2022-11-13T01:16:24;21.30;;;12.00;;
70733;SDS011;58320;48.804;9.252;2022-11-13T01:18:54;24.38;;;14.70;;
70733;SDS011;58320;48.804;9.252;2022-11-13T01:21:22;29.27;;;14.32;;
70733;SDS011;58320;48.804;9.252;2022-11-13T01:23:50;27.58;;;15.18;;
70733;SDS011;58320;48.804;9.252;2022-11-13T01:26:23;33.60;;;15.47;;
70733;SDS011;58320;48.804;9.252;2022-11-13T01:28:52;29.92;;;14.90;;
70733;SDS011;58320;48.804;9.252;2022-11-13T01:31:21;21.63;;;11.88;;
70733;SDS011;58320;48.804;9.252;2022-11-13T01:33:49;25.13;;;14.38;;
70733;SDS011;58320;48.804;9.252;2022-11-13T01:36:16;29.77;;;14.27;;
70733;SDS011;58320;48.804;9.252;2022-11-13T01:38:52;38.70;;;14.80;;
70733;SDS011;58320;48.804;9.252;2022-11-13T01:43:56;17.30;;;11.32;;
70733;SDS011;58320;48.804;9.252;2022-11-13T01:46:25;23.58;;;14.43;;
70733;SDS011;58320;48.804;9.252;2022-11-13T01:51:35;25.67;;;13.20;;
70733;SDS011;58320;48.804;9.252;2022-11-13T01:54:36;22.77;;;12.27;;
70733;SDS011;58320;48.804;9.252;2022-11-13T01:57:06;29.80;;;13.32;;
70733;SDS011;58320;48.804;9.252;2022-11-13T01:59:39;21.42;;;12.15;;
70733;SDS011;58320;48.804;9.252;2022-11-13T02:02:11;24.08;;;11.88;;
70733;SDS011;58320;48.804;9.252;2022-11-13T02:04:37;17.37;;;11.33;;
70733;SDS011;58320;48.804;9.252;2022-11-13T02:07:05;20.70;;;12.27;;
70733;SDS011;58320;48.804;9.252;2022-11-13T02:09:37;21.17;;;12.98;;
70733;SDS011;58320;48.804;9.252;2022-11-13T02:12:09;20.63;;;10.93;;
70733;SDS011;58320;48.804;9.252;2022-11-13T02:14:42;22.50;;;10.20;;
70733;SDS011;58320;48.804;9.252;2022-11-13T02:17:19;22.52;;;10.77;;
70733;SDS011;58320;48.804;9.252;2022-11-13T02:19:52;70.18;;;14.88;;
70733;SDS011;58320;48.804;9.252;2022-11-13T02:25:25;50.45;;;13.40;;
70733;SDS011;58320;48.804;9.252;2022-11-13T02:27:54;35.30;;;11.57;;
70733;SDS011;58320;48.804;9.252;2022-11-13T02:30:21;101.10;;;15.30;;
70733;SDS011;58320;48.804;9.252;2022-11-13T02:32:51;45.03;;;11.07;;
70733;SDS011;58320;48.804;9.252;2022-11-13T02:35:20;118.60;;;16.60;;
70733;SDS011;58320;48.804;9.252;2022-11-13T02:37:51;68.70;;;11.63;;
70733;SDS011;58320;48.804;9.252;2022-11-13T02:40:19;35.08;;;11.93;;
70733;SDS011;58320;48.804;9.252;2022-11-13T02:42:45;82.75;;;15.90;;
70733;SDS011;58320;48.804;9.252;2022-11-13T02:45:10;60.60;;;13.20;;
70733;SDS011;58320;48.804;9.252;2022-11-13T02:47:36;88.15;;;15.60;;
70733;SDS011;58320;48.804;9.252;2022-11-13T02:50:02;27.08;;;11.27;;
70733;SDS011;58320;48.804;9.252;2022-11-13T02:52:29;43.23;;;12.50;;
70733;SDS011;58320;48.804;9.252;2022-11-13T02:54:55;63.08;;;12.77;;
70733;SDS011;58320;48.804;9.252;2022-11-13T02:57:21;20.77;;;8.55;;
70733;SDS011;58320;48.804;9.252;2022-11-13T02:59:47;67.72;;;11.90;;
70733;SDS011;58320;48.804;9.252;2022-11-13T03:02:13;60.47;;;11.27;;
70733;SDS011;58320;48.804;9.252;2022-11-13T03:04:39;26.88;;;9.68;;
70733;SDS011;58320;48.804;9.252;2022-11-13T03:07:05;23.70;;;10.15;;
70733;SDS011;58320;48.804;9.252;2022-11-13T03:09:31;21.03;;;8.97;;
70733;SDS011;58320;48.804;9.252;2022-11-13T03:11:56;31.05;;;10.05;;
70733;SDS011;58320;48.804;9.252;2022-11-13T03:14:22;26.35;;;11.25;;
70733;SDS011;58320;48.804;9.252;2022-11-13T03:16:48;25.60;;;10.67;;
70733;SDS011;58320;48.804;9.252;2022-11-13T03:19:14;13.35;;;7.50;;
70733;SDS011;58320;48.804;9.252;2022-11-13T03:21:40;12.37;;;8.13;;
70733;SDS011;58320;48.804;9.252;2022-11-13T03:24:05;37.43;;;12.40;;
70733;SDS011;58320;48.804;9.252;2022-11-13T03:26:31;19.90;;;10.00;;
70733;SDS011;58320;48.804;9.252;2022-11-13T03:28:57;22.13;;;10.18;;
70733;SDS011;58320;48.804;9.252;2022-11-13T03:31:23;17.17;;;8.47;;
70733;SDS011;58320;48.804;9.252;2022-11-13T03:33:52;13.07;;;7.07;;
70733;SDS011;58320;48.804;9.252;2022-11-13T03:36:18;11.10;;;7.03;;
70733;SDS011;58320;48.804;9.252;2022-11-13T03:38:45;19.15;;;9.23;;
70733;SDS011;58320;48.804;9.252;2022-11-13T03:41:11;24.77;;;8.47;;
70733;SDS011;58320;48.804;9.252;2022-11-13T03:43:39;26.23;;;9.35;;
70733;SDS011;58320;48.804;9.252;2022-11-13T03:46:05;16.00;;;7.38;;
70733;SDS011;58320;48.804;9.252;2022-11-13T03:48:32;41.90;;;11.63;;
70733;SDS011;58320;48.804;9.252;2022-11-13T03:50:58;62.00;;;13.87;;
70733;SDS011;58320;48.804;9.252;2022-11-13T03:53:24;27.92;;;9.63;;
70733;SDS011;58320;48.804;9.252;2022-11-13T03:55:50;25.23;;;8.30;;
70733;SDS011;58320;48.804;9.252;2022-11-13T03:58:16;18.33;;;9.52;;
70733;SDS011;58320;48.804;9.252;2022-11-13T04:00:43;15.30;;;7.67;;
70733;SDS011;58320;48.804;9.252;2022-11-13T04:03:10;24.13;;;9.30;;
70733;SDS011;58320;48.804;9.252;2022-11-13T04:05:36;23.80;;;9.20;;
70733;SDS011;58320;48.804;9.252;2022-11-13T04:08:02;35.00;;;10.23;;
70733;SDS011;58320;48.804;9.252;2022-11-13T04:10:29;31.35;;;10.02;;
70733;SDS011;58320;48.804;9.252;2022-11-13T04:12:55;17.50;;;9.10;;
70733;SDS011;58320;48.804;9.252;2022-11-13T04:15:20;24.10;;;9.68;;
70733;SDS011;58320;48.804;9.252;2022-11-13T04:17:47;34.08;;;9.93;;
70733;SDS011;58320;48.804;9.252;2022-11-13T04:20:14;19.30;;;10.02;;
70733;SDS011;58320;48.804;9.252;2022-11-13T04:22:41;29.40;;;10.90;;
70733;SDS011;58320;48.804;9.252;2022-11-13T04:25:07;13.60;;;7.35;;
70733;SDS011;58320;48.804;9.252;2022-11-13T04:27:33;24.70;;;9.73;;
70733;SDS011;58320;48.804;9.252;2022-11-13T04:29:59;18.65;;;9.75;;
70733;SDS011;58320;48.804;9.252;2022-11-13T04:32:26;21.55;;;9.57;;
70733;SDS011;58320;48.804;9.252;2022-11-13T04:34:52;49.10;;;10.50;;
70733;SDS011;58320;48.804;9.252;2022-11-13T04:37:17;22.05;;;10.10;;
70733;SDS011;58320;48.804;9.252;2022-11-13T04:39:43;19.15;;;9.35;;
70733;SDS011;58320;48.804;9.252;2022-11-13T04:42:09;18.73;;;9.80;;
70733;SDS011;58320;48.804;9.252;2022-11-13T04:44:54;43.97;;;12.13;;
70733;SDS011;58320;48.804;9.252;2022-11-13T04:47:20;28.15;;;10.23;;
70733;SDS011;58320;48.804;9.252;2022-11-13T04:49:46;25.77;;;12.45;;
70733;SDS011;58320;48.804;9.252;2022-11-13T04:52:12;40.07;;;13.40;;
70733;SDS011;58320;48.804;9.252;2022-11-13T04:54:38;109.47;;;13.90;;
70733;SDS011;58320;48.804;9.252;2022-11-13T04:57:04;36.20;;;12.97;;
70733;SDS011;58320;48.804;9.252;2022-11-13T04:59:30;25.70;;;12.93;;
70733;SDS011;58320;48.804;9.252;2022-11-13T05:01:56;33.75;;;11.27;;
70733;SDS011;58320;48.804;9.252;2022-11-13T05:04:22;14.15;;;8.27;;
70733;SDS011;58320;48.804;9.252;2022-11-13T05:06:48;42.72;;;11.60;;
70733;SDS011;58320;48.804;9.252;2022-11-13T05:09:14;22.27;;;10.17;;
70733;SDS011;58320;48.804;9.252;2022-11-13T05:11:40;21.88;;;10.57;;
70733;SDS011;58320;48.804;9.252;2022-11-13T05:14:06;67.78;;;13.98;;
70733;SDS011;58320;48.804;9.252;2022-11-13T05:16:33;26.77;;;11.50;;
70733;SDS011;58320;48.804;9.252;2022-11-13T05:19:00;29.20;;;11.20;;
70733;SDS011;58320;48.804;9.252;2022-11-13T05:21:31;80.07;;;14.88;;
70733;SDS011;58320;48.804;9.252;2022-11-13T05:23:58;33.55;;;11.27;;
70733;SDS011;58320;48.804;9.252;2022-11-13T05:26:24;46.90;;;14.02;;
70733;SDS011;58320;48.804;9.252;2022-11-13T05:28:50;43.87;;;11.47;;
70733;SDS011;58320;48.804;9.252;2022-11-13T05:31:16;32.88;;;12.77;;
70733;SDS011;58320;48.804;9.252;2022-11-13T05:33:43;40.38;;;11.98;;
70733;SDS011;58320;48.804;9.252;2022-11-13T05:36:10;31.95;;;11.98;;
70733;SDS011;58320;48.804;9.252;2022-11-13T05:38:40;31.38;;;13.35;;
70733;SDS011;58320;48.804;9.252;2022-11-13T05:41:08;39.40;;;12.63;;
70733;SDS011;58320;48.804;9.252;2022-11-13T05:43:39;96.18;;;15.60;;
70733;SDS011;58320;48.804;9.252;2022-11-13T05:46:11;96.00;;;14.50;;
70733;SDS011;58320;48.804;9.252;2022-11-13T05:48:52;31.25;;;11.18;;
70733;SDS011;58320;48.804;9.252;2022-11-13T05:51:21;27.02;;;10.52;;
70733;SDS011;58320;48.804;9.252;2022-11-13T05:53:53;22.80;;;10.17;;
70733;SDS011;58320;48.804;9.252;2022-11-13T05:56:21;20.15;;;8.45;;
70733;SDS011;58320;48.804;9.252;2022-11-13T05:58:49;36.92;;;11.20;;
70733;SDS011;58320;48.804;9.252;2022-11-13T06:03:44;95.32;;;13.32;;
70733;SDS011;58320;48.804;9.252;2022-11-13T06:06:11;74.60;;;14.80;;
70733;SDS011;58320;48.804;9.252;2022-11-13T06:08:40;104.25;;;14.80;;
70733;SDS011;58320;48.804;9.252;2022-11-13T06:11:10;58.30;;;11.85;;
70733;SDS011;58320;48.804;9.252;2022-11-13T06:13:39;36.15;;;12.35;;
70733;SDS011;58320;48.804;9.252;2022-11-13T06:16:06;144.97;;;15.73;;
70733;SDS011;58320;48.804;9.252;2022-11-13T06:18:39;108.43;;;13.18;;
70733;SDS011;58320;48.804;9.252;2022-11-13T06:21:08;62.30;;;13.00;;
70733;SDS011;58320;48.804;9.252;2022-11-13T06:23:40;24.05;;;10.27;;
70733;SDS011;58320;48.804;9.252;2022-11-13T06:28:46;18.63;;;8.70;;
70733;SDS011;58320;48.804;9.252;2022-11-13T06:31:16;24.75;;;10.02;;
70733;SDS011;58320;48.804;9.252;2022-11-13T06:33:44;64.28;;;11.70;;
70733;SDS011;58320;48.804;9.252;2022-11-13T06:36:12;27.08;;;9.98;;
70733;SDS011;58320;48.804;9.252;2022-11-13T06:38:42;22.98;;;9.85;;
70733;SDS011;58320;48.804;9.252;2022-11-13T06:41:09;57.30;;;11.50;;
70733;SDS011;58320;48.804;9.252;2022-11-13T06:43:37;32.67;;;10.40;;
70733;SDS011;58320;48.804;9.252;2022-11-13T06:46:04;105.32;;;13.20;;
70733;SDS011;58320;48.804;9.252;2022-11-13T06:48:34;9.73;;;5.90;;
70733;SDS011;58320;48.804;9.252;2022-11-13T06:51:01;8.93;;;6.00;;
70733;SDS011;58320;48.804;9.252;2022-11-13T06:53:29;14.55;;;7.78;;
70733;SDS011;58320;48.804;9.252;2022-11-13T06:55:56;20.00;;;8.85;;
70733;SDS011;58320;48.804;9.252;2022-11-13T06:58:23;20.38;;;10.75;;
70733;SDS011;58320;48.804;9.252;2022-11-13T07:00:49;16.20;;;8.73;;
70733;SDS011;58320;48.804;9.252;2022-11-13T07:05:46;15.38;;;7.70;;
70733;SDS011;58320;48.804;9.252;2022-11-13T07:08:13;14.68;;;8.13;;
70733;SDS011;58320;48.804;9.252;2022-11-13T07:10:39;17.80;;;8.02;;
70733;SDS011;58320;48.804;9.252;2022-11-13T07:13:06;16.85;;;7.28;;
70733;SDS011;58320;48.804;9.252;2022-11-13T07:15:36;12.17;;;6.60;;
70733;SDS011;58320;48.804;9.252;2022-11-13T07:18:04;26.60;;;8.50;;
70733;SDS011;58320;48.804;9.252;2022-11-13T07:20:31;29.90;;;10.50;;
70733;SDS011;58320;48.804;9.252;2022-11-13T07:22:58;12.85;;;7.03;;
70733;SDS011;58320;48.804;9.252;2022-11-13T07:25:25;21.02;;;8.32;;
70733;SDS011;58320;48.804;9.252;2022-11-13T07:27:52;14.13;;;8.20;;
70733;SDS011;58320;48.804;9.252;2022-11-13T07:30:18;27.20;;;11.13;;
70733;SDS011;58320;48.804;9.252;2022-11-13T07:32:44;14.07;;;7.22;;
70733;SDS011;58320;48.804;9.252;2022-11-13T07:35:10;41.20;;;11.30;;
70733;SDS011;58320;48.804;9.252;2022-11-13T07:37:36;37.93;;;11.03;;
70733;SDS011;58320;48.804;9.252;2022-11-13T07:40:03;34.33;;;9.88;;
70733;SDS011;58320;48.804;9.252;2022-11-13T07:42:30;14.65;;;6.93;;
70733;SDS011;58320;48.804;9.252;2022-11-13T07:44:56;16.30;;;7.90;;
70733;SDS011;58320;48.804;9.252;2022-11-13T07:47:22;31.00;;;11.40;;
70733;SDS011;58320;48.804;9.252;2022-11-13T07:49:48;51.60;;;12.90;;
70733;SDS011;58320;48.804;9.252;2022-11-13T07:52:14;29.55;;;12.88;;
70733;SDS011;58320;48.804;9.252;2022-11-13T07:54:40;18.08;;;9.45;;
70733;SDS011;58320;48.804;9.252;2022-11-13T07:57:06;20.57;;;9.97;;
70733;SDS011;58320;48.804;9.252;2022-11-13T07:59:32;27.10;;;11.30;;
70733;SDS011;58320;48.804;9.252;2022-11-13T08:01:58;18.77;;;10.77;;
70733;SDS011;58320;48.804;9.252;2022-11-13T08:04:24;14.90;;;8.50;;
70733;SDS011;58320;48.804;9.252;2022-11-13T08:06:50;52.13;;;11.30;;
70733;SDS011;58320;48.804;9.252;2022-11-13T08:09:16;30.45;;;10.55;;
70733;SDS011;58320;48.804;9.252;2022-11-13T08:11:42;19.83;;;9.77;;
70733;SDS011;58320;48.804;9.252;2022-11-13T08:14:09;26.73;;;10.60;;
70733;SDS011;58320;48.804;9.252;2022-11-13T08:16:35;22.50;;;10.50;;
70733;SDS011;58320;48.804;9.252;2022-11-13T08:19:01;20.55;;;10.10;;
70733;SDS011;58320;48.804;9.252;2022-11-13T08:21:28;16.52;;;8.35;;
70733;SDS011;58320;48.804;9.252;2022-11-13T08:23:54;19.20;;;8.93;;
70733;SDS011;58320;48.804;9.252;2022-11-13T08:26:20;12.10;;;7.57;;
70733;SDS011;58320;48.804;9.252;2022-11-13T08:28:46;17.20;;;8.38;;
70733;SDS011;58320;48.804;9.252;2022-11-13T08:31:13;12.77;;;7.68;;
70733;SDS011;58320;48.804;9.252;2022-11-13T08:33:40;15.13;;;8.87;;
70733;SDS011;58320;48.804;9.252;2022-11-13T08:36:08;13.70;;;8.35;;
70733;SDS011;58320;48.804;9.252;2022-11-13T08:38:35;14.88;;;7.95;;
70733;SDS011;58320;48.804;9.252;2022-11-13T08:41:02;13.52;;;8.07;;
70733;SDS011;58320;48.804;9.252;2022-11-13T08:43:29;9.90;;;6.10;;
70733;SDS011;58320;48.804;9.252;2022-11-13T08:45:55;14.43;;;7.73;;
70733;SDS011;58320;48.804;9.252;2022-11-13T08:48:22;16.42;;;7.10;;
70733;SDS011;58320;48.804;9.252;2022-11-13T08:50:54;10.30;;;6.15;;
70733;SDS011;58320;48.804;9.252;2022-11-13T08:53:21;17.27;;;7.28;;
70733;SDS011;58320;48.804;9.252;2022-11-13T08:55:48;13.67;;;7.47;;
70733;SDS011;58320;48.804;9.252;2022-11-13T08:58:14;28.40;;;10.00;;
70733;SDS011;58320;48.804;9.252;2022-11-13T09:00:40;15.45;;;8.57;;
70733;SDS011;58320;48.804;9.252;2022-11-13T09:03:07;13.20;;;7.80;;
70733;SDS011;58320;48.804;9.252;2022-11-13T09:05:35;17.40;;;8.30;;
70733;SDS011;58320;48.804;9.252;2022-11-13T09:08:02;13.98;;;7.57;;
70733;SDS011;58320;48.804;9.252;2022-11-13T09:10:28;12.90;;;7.65;;
70733;SDS011;58320;48.804;9.252;2022-11-13T09:12:55;14.32;;;7.95;;
70733;SDS011;58320;48.804;9.252;2022-11-13T09:15:22;10.23;;;6.57;;
70733;SDS011;58320;48.804;9.252;2022-11-13T09:17:49;10.13;;;6.47;;
70733;SDS011;58320;48.804;9.252;2022-11-13T09:20:14;15.52;;;8.98;;
70733;SDS011;58320;48.804;9.252;2022-11-13T09:22:40;19.38;;;9.00;;
70733;SDS011;58320;48.804;9.252;2022-11-13T09:25:06;15.13;;;9.47;;
70733;SDS011;58320;48.804;9.252;2022-11-13T09:27:33;12.40;;;7.45;;
70733;SDS011;58320;48.804;9.252;2022-11-13T09:29:59;11.50;;;6.97;;
70733;SDS011;58320;48.804;9.252;2022-11-13T09:32:24;11.20;;;6.63;;
70733;SDS011;58320;48.804;9.252;2022-11-13T09:34:50;15.88;;;9.57;;
70733;SDS011;58320;48.804;9.252;2022-11-13T09:37:16;17.90;;;10.25;;
70733;SDS011;58320;48.804;9.252;2022-11-13T09:39:42;15.67;;;8.47;;
70733;SDS011;58320;48.804;9.252;2022-11-13T09:42:17;13.63;;;7.47;;
70733;SDS011;58320;48.804;9.252;2022-11-13T09:44:48;16.13;;;9.95;;
70733;SDS011;58320;48.804;9.252;2022-11-13T09:47:20;38.38;;;10.45;;
70733;SDS011;58320;48.804;9.252;2022-11-13T09:50:02;29.27;;;10.30;;
70733;SDS011;58320;48.804;9.252;2022-11-13T09:52:42;17.17;;;9.88;;
70733;SDS011;58320;48.804;9.252;2022-11-13T09:55:14;14.52;;;9.10;;
70733;SDS011;58320;48.804;9.252;2022-11-13T09:57:50;14.68;;;9.43;;
70733;SDS011;58320;48.804;9.252;2022-11-13T10:00:40;15.25;;;9.80;;
70733;SDS011;58320;48.804;9.252;2022-11-13T10:06:26;11.55;;;7.50;;
70733;SDS011;58320;48.804;9.252;2022-11-13T10:09:08;14.77;;;9.70;;
70733;SDS011;58320;48.804;9.252;2022-11-13T10:12:18;14.82;;;8.73;;
70733;SDS011;58320;48.804;9.252;2022-11-13T10:14:49;13.93;;;8.93;;
70733;SDS011;58320;48.804;9.252;2022-11-13T10:20:27;13.23;;;8.40;;
70733;SDS011;58320;48.804;9.252;2022-11-13T10:23:08;13.07;;;8.30;;
70733;SDS011;58320;48.804;9.252;2022-11-13T10:25:41;12.23;;;8.07;;
70733;SDS011;58320;48.804;9.252;2022-11-13T10:28:19;12.30;;;8.10;;
70733;SDS011;58320;48.804;9.252;2022-11-13T10:30:47;12.10;;;6.68;;
70733;SDS011;58320;48.804;9.252;2022-11-13T10:33:19;12.23;;;7.72;;
70733;SDS011;58320;48.804;9.252;2022-11-13T10:38:57;13.73;;;9.32;;
70733;SDS011;58320;48.804;9.252;2022-11-13T10:41:29;11.87;;;7.50;;
70733;SDS011;58320;48.804;9.252;2022-11-13T10:44:05;13.95;;;9.05;;
70733;SDS011;58320;48.804;9.252;2022-11-13T10:46:44;13.77;;;9.30;;
70733;SDS011;58320;48.804;9.252;2022-11-13T10:49:11;13.90;;;9.13;;
70733;SDS011;58320;48.804;9.252;2022-11-13T10:51:40;12.73;;;8.40;;
70733;SDS011;58320;48.804;9.252;2022-11-13T10:57:15;11.38;;;7.57;;
70733;SDS011;58320;48.804;9.252;2022-11-13T11:00:17;11.65;;;7.55;;
70733;SDS011;58320;48.804;9.252;2022-11-13T11:02:55;13.43;;;8.45;;
70733;SDS011;58320;48.804;9.252;2022-11-13T11:05:22;9.67;;;6.60;;
70733;SDS011;58320;48.804;9.252;2022-11-13T11:07:50;10.32;;;7.22;;
70733;SDS011;58320;48.804;9.252;2022-11-13T11:12:58;12.18;;;7.65;;
70733;SDS011;58320;48.804;9.252;2022-11-13T11:18:14;10.75;;;6.60;;
70733;SDS011;58320;48.804;9.252;2022-11-13T11:20:53;10.30;;;7.00;;
70733;SDS011;58320;48.804;9.252;2022-11-13T11:29:15;9.97;;;6.87;;
70733;SDS011;58320;48.804;9.252;2022-11-13T11:34:43;8.77;;;7.07;;
70733;SDS011;58320;48.804;9.252;2022-11-13T11:37:14;9.30;;;6.80;;
70733;SDS011;58320;48.804;9.252;2022-11-13T11:42:40;10.27;;;7.80;;
70733;SDS011;58320;48.804;9.252;2022-11-13T11:45:36;9.50;;;7.80;;
70733;SDS011;58320;48.804;9.252;2022-11-13T11:48:17;12.90;;;8.70;;
70733;SDS011;58320;48.804;9.252;2022-11-13T11:50:53;8.10;;;6.70;;
70733;SDS011;58320;48.804;9.252;2022-11-13T11:56:26;9.00;;;7.63;;
70733;SDS011;58320;48.804;9.252;2022-11-13T11:59:08;10.48;;;8.00;;
70733;SDS011;58320;48.804;9.252;2022-11-13T12:13:42;8.68;;;6.90;;
70733;SDS011;58320;48.804;9.252;2022-11-13T12:16:29;9.38;;;6.88;;
70733;SDS011;58320;48.804;9.252;2022-11-13T12:32:02;9.25;;;7.25;;
70733;SDS011;58320;48.804;9.252;2022-11-13T12:35:03;8.50;;;6.85;;
70733;SDS011;58320;48.804;9.252;2022-11-13T12:37:42;9.93;;;7.40;;
70733;SDS011;58320;48.804;9.252;2022-11-13T12:45:55;9.80;;;8.45;;
70733;SDS011;58320;48.804;9.252;2022-11-13T12:48:38;8.82;;;6.68;;
70733;SDS011;58320;48.804;9.252;2022-11-13T12:51:13;12.30;;;6.70;;
70733;SDS011;58320;48.804;9.252;2022-11-13T12:53:51;9.53;;;6.83;;
70733;SDS011;58320;48.804;9.252;2022-11-13T13:15:42;11.05;;;8.07;;
70733;SDS011;58320;48.804;9.252;2022-11-13T13:18:22;11.00;;;7.90;;
70733;SDS011;58320;48.804;9.252;2022-11-13T13:21:03;11.73;;;7.73;;
70733;SDS011;58320;48.804;9.252;2022-11-13T13:28:50;13.02;;;10.00;;
70733;SDS011;58320;48.804;9.252;2022-11-13T13:43:18;12.73;;;8.77;;
70733;SDS011;58320;48.804;9.252;2022-11-13T13:51:19;12.90;;;9.20;;
70733;SDS011;58320;48.804;9.252;2022-11-13T13:53:51;14.98;;;10.75;;
70733;SDS011;58320;48.804;9.252;2022-11-13T13:56:19;11.15;;;8.15;;
70733;SDS011;58320;48.804;9.252;2022-11-13T14:01:15;13.07;;;9.67;;
70733;SDS011;58320;48.804;9.252;2022-11-13T14:06:21;15.07;;;10.37;;
70733;SDS011;58320;48.804;9.252;2022-11-13T14:08:48;13.87;;;10.40;;
70733;SDS011;58320;48.804;9.252;2022-11-13T14:11:15;13.00;;;9.65;;
70733;SDS011;58320;48.804;9.252;2022-11-13T14:13:42;11.63;;;8.32;;
70733;SDS011;58320;48.804;9.252;2022-11-13T14:16:08;14.38;;;9.95;;
70733;SDS011;58320;48.804;9.252;2022-11-13T14:18:34;13.50;;;9.80;;
70733;SDS011;58320;48.804;9.252;2022-11-13T14:21:00;12.45;;;9.20;;
70733;SDS011;58320;48.804;9.252;2022-11-13T14:23:47;13.38;;;9.07;;
70733;SDS011;58320;48.804;9.252;2022-11-13T14:26:15;14.15;;;10.13;;
70733;SDS011;58320;48.804;9.252;2022-11-13T14:28:56;12.63;;;7.90;;
70733;SDS011;58320;48.804;9.252;2022-11-13T14:31:25;13.27;;;9.67;;
70733;SDS011;58320;48.804;9.252;2022-11-13T14:34:02;12.57;;;8.93;;
70733;SDS011;58320;48.804;9.252;2022-11-13T14:36:35;12.88;;;9.30;;
70733;SDS011;58320;48.804;9.252;2022-11-13T14:39:03;12.57;;;8.68;;
70733;SDS011;58320;48.804;9.252;2022-11-13T14:41:31;11.90;;;8.47;;
70733;SDS011;58320;48.804;9.252;2022-11-13T14:44:04;13.18;;;8.95;;
70733;SDS011;58320;48.804;9.252;2022-11-13T14:49:01;10.18;;;7.10;;
70733;SDS011;58320;48.804;9.252;2022-11-13T14:51:31;15.65;;;9.60;;
70733;SDS011;58320;48.804;9.252;2022-11-13T14:53:59;12.23;;;8.80;;
70733;SDS011;58320;48.804;9.252;2022-11-13T14:56:35;11.82;;;8.65;;
70733;SDS011;58320;48.804;9.252;2022-11-13T14:59:06;12.40;;;8.43;;
70733;SDS011;58320;48.804;9.252;2022-11-13T15:01:36;12.50;;;8.23;;
70733;SDS011;58320;48.804;9.252;2022-11-13T15:04:02;11.23;;;7.10;;
70733;SDS011;58320;48.804;9.252;2022-11-13T15:06:38;10.40;;;6.80;;
70733;SDS011;58320;48.804;9.252;2022-11-13T15:09:05;10.27;;;6.93;;
70733;SDS011;58320;48.804;9.252;2022-11-13T15:11:37;9.68;;;6.00;;
70733;SDS011;58320;48.804;9.252;2022-11-13T15:14:17;9.63;;;6.50;;
70733;SDS011;58320;48.804;9.252;2022-11-13T15:16:45;8.80;;;5.85;;
70733;SDS011;58320;48.804;9.252;2022-11-13T15:19:16;11.20;;;7.83;;
70733;SDS011;58320;48.804;9.252;2022-11-13T15:21:58;12.57;;;9.07;;
70733;SDS011;58320;48.804;9.252;2022-11-13T15:24:24;12.90;;;8.60;;
70733;SDS011;58320;48.804;9.252;2022-11-13T15:26:50;12.77;;;8.85;;
70733;SDS011;58320;48.804;9.252;2022-11-13T15:29:16;10.97;;;7.00;;
70733;SDS011;58320;48.804;9.252;2022-11-13T15:31:42;11.23;;;8.40;;
70733;SDS011;58320;48.804;9.252;2022-11-13T15:34:11;11.15;;;8.30;;
70733;SDS011;58320;48.804;9.252;2022-11-13T15:36:39;12.38;;;8.93;;
70733;SDS011;58320;48.804;9.252;2022-11-13T15:39:06;15.20;;;8.50;;
70733;SDS011;58320;48.804;9.252;2022-11-13T15:41:37;9.68;;;6.30;;
70733;SDS011;58320;48.804;9.252;2022-11-13T15:44:10;8.70;;;5.95;;
70733;SDS011;58320;48.804;9.252;2022-11-13T15:46:39;13.77;;;9.30;;
70733;SDS011;58320;48.804;9.252;2022-11-13T15:49:05;11.18;;;8.55;;
70733;SDS011;58320;48.804;9.252;2022-11-13T15:51:35;13.27;;;8.83;;
70733;SDS011;58320;48.804;9.252;2022-11-13T15:56:53;15.40;;;9.57;;
70733;SDS011;58320;48.804;9.252;2022-11-13T15:59:19;15.65;;;10.05;;
70733;SDS011;58320;48.804;9.252;2022-11-13T16:01:45;14.07;;;9.53;;
70733;SDS011;58320;48.804;9.252;2022-11-13T16:04:11;17.13;;;10.68;;
70733;SDS011;58320;48.804;9.252;2022-11-13T16:06:39;15.27;;;10.15;;
70733;SDS011;58320;48.804;9.252;2022-11-13T16:09:05;12.52;;;8.45;;
70733;SDS011;58320;48.804;9.252;2022-11-13T16:11:37;13.73;;;9.50;;
70733;SDS011;58320;48.804;9.252;2022-11-13T16:14:03;17.33;;;11.57;;
70733;SDS011;58320;48.804;9.252;2022-11-13T16:16:34;17.58;;;10.98;;
70733;SDS011;58320;48.804;9.252;2022-11-13T16:19:02;17.73;;;12.23;;
70733;SDS011;58320;48.804;9.252;2022-11-13T16:21:35;18.10;;;11.30;;
70733;SDS011;58320;48.804;9.252;2022-11-13T16:24:01;15.53;;;10.73;;
70733;SDS011;58320;48.804;9.252;2022-11-13T16:26:27;20.10;;;11.98;;
70733;SDS011;58320;48.804;9.252;2022-11-13T16:28:53;16.45;;;11.20;;
70733;SDS011;58320;48.804;9.252;2022-11-13T16:31:20;19.13;;;11.93;;
70733;SDS011;58320;48.804;9.252;2022-11-13T16:33:46;16.90;;;12.00;;
70733;SDS011;58320;48.804;9.252;2022-11-13T16:36:22;18.13;;;13.00;;
70733;SDS011;58320;48.804;9.252;2022-11-13T16:38:48;20.73;;;13.77;;
70733;SDS011;58320;48.804;9.252;2022-11-13T16:41:14;19.98;;;14.18;;
70733;SDS011;58320;48.804;9.252;2022-11-13T16:43:44;20.83;;;13.60;;
70733;SDS011;58320;48.804;9.252;2022-11-13T16:46:19;18.95;;;13.05;;
70733;SDS011;58320;48.804;9.252;2022-11-13T16:49:01;19.10;;;12.15;;
70733;SDS011;58320;48.804;9.252;2022-11-13T16:51:27;20.05;;;13.50;;